sensor_id;sensor_type;location;lat;lon;timestamp;pressure;altitude;pressure_sealevel;temperature;humidity
39555;BME280;25231;48.746;9.234;2022-12-07T00:01:03;96768.75;;;3.15;100.00
39555;BME280;25231;48.746;9.234;2022-12-07T00:03:29;96770.91;;;2.82;100.00
39555;BME280;25231;48.746;9.234;2022-12-07T00:05:57;96766.88;;;2.80;100.00
39555;BME280;25231;48.746;9.234;2022-12-07T00:08:22;96769.94;;;2.83;100.00
39555;BME280;25231;48.746;9.234;2022-12-07T00:10:48;96771.03;;;2.89;100.00
39555;BME280;25231;48.746;9.234;2022-12-07T00:13:13;96764.13;;;2.81;100.00
39555;BME280;25231;48.746;9.234;2022-12-07T00:15:39;96766.91;;;2.95;100.00
39555;BME280;25231;48.746;9.234;2022-12-07T00:18:04;96771.91;;;2.81;100.00
39555;BME280;25231;48.746;9.234;2022-12-07T00:20:29;96765.13;;;2.66;100.00
39555;BME280;25231;48.746;9.234;2022-12-07T00:22:56;96766.81;;;2.88;100.00
39555;BME280;25231;48.746;9.234;2022-12-07T00:25:21;96771.09;;;2.81;100.00
39555;BME280;25231;48.746;9.234;2022-12-07T00:27:47;96762.34;;;2.82;100.00
39555;BME280;25231;48.746;9.234;2022-12-07T00:30:12;96767.25;;;2.91;100.00
39555;BME280;25231;48.746;9.234;2022-12-07T00:32:37;96767.97;;;2.85;100.00
39555;BME280;25231;48.746;9.234;2022-12-07T00:35:03;96765.75;;;2.82;100.00
39555;BME280;25231;48.746;9.234;2022-12-07T00:37:29;96765.56;;;2.84;100.00
39555;BME280;25231;48.746;9.234;2022-12-07T00:39:54;96762.09;;;2.77;100.00
39555;BME280;25231;48.746;9.234;2022-12-07T00:42:19;96761.91;;;2.78;100.00
39555;BME280;25231;48.746;9.234;2022-12-07T00:44:45;96764.22;;;2.73;100.00
39555;BME280;25231;48.746;9.234;2022-12-07T00:47:10;96767.97;;;2.71;100.00
39555;BME280;25231;48.746;9.234;2022-12-07T00:49:36;96764.50;;;2.78;100.00
39555;BME280;25231;48.746;9.234;2022-12-07T00:52:01;96761.00;;;2.86;100.00
39555;BME280;25231;48.746;9.234;2022-12-07T00:54:26;96762.19;;;2.83;100.00
39555;BME280;25231;48.746;9.234;2022-12-07T00:56:52;96762.78;;;2.85;100.00
39555;BME280;25231;48.746;9.234;2022-12-07T00:59:17;96759.84;;;2.74;100.00
39555;BME280;25231;48.746;9.234;2022-12-07T01:01:42;96759.75;;;2.82;100.00
39555;BME280;25231;48.746;9.234;2022-12-07T01:04:08;96764.84;;;2.75;100.00
39555;BME280;25231;48.746;9.234;2022-12-07T01:06:33;96765.22;;;2.87;100.00
39555;BME280;25231;48.746;9.234;2022-12-07T01:09:00;96761.81;;;2.86;100.00
39555;BME280;25231;48.746;9.234;2022-12-07T01:11:28;96766.78;;;2.73;100.00
39555;BME280;25231;48.746;9.234;2022-12-07T01:13:55;96766.91;;;2.65;100.00
39555;BME280;25231;48.746;9.234;2022-12-07T01:16:22;96760.47;;;2.61;100.00
39555;BME280;25231;48.746;9.234;2022-12-07T01:18:50;96767.69;;;2.66;100.00
39555;BME280;25231;48.746;9.234;2022-12-07T01:21:18;96764.41;;;2.72;100.00
39555;BME280;25231;48.746;9.234;2022-12-07T01:23:46;96759.22;;;2.72;100.00
39555;BME280;25231;48.746;9.234;2022-12-07T01:26:13;96769.13;;;2.54;100.00
39555;BME280;25231;48.746;9.234;2022-12-07T01:28:39;96774.06;;;2.78;100.00
39555;BME280;25231;48.746;9.234;2022-12-07T01:31:16;96771.69;;;2.54;100.00
39555;BME280;25231;48.746;9.234;2022-12-07T01:33:47;96775.28;;;2.67;100.00
39555;BME280;25231;48.746;9.234;2022-12-07T01:36:16;96773.09;;;2.41;100.00
39555;BME280;25231;48.746;9.234;2022-12-07T01:38:43;96774.44;;;2.52;100.00
39555;BME280;25231;48.746;9.234;2022-12-07T01:41:09;96774.38;;;2.60;100.00
39555;BME280;25231;48.746;9.234;2022-12-07T01:43:35;96777.59;;;2.62;100.00
39555;BME280;25231;48.746;9.234;2022-12-07T01:46:02;96785.97;;;2.49;100.00
39555;BME280;25231;48.746;9.234;2022-12-07T01:48:38;96784.81;;;2.52;100.00
39555;BME280;25231;48.746;9.234;2022-12-07T01:51:09;96781.25;;;2.53;100.00
39555;BME280;25231;48.746;9.234;2022-12-07T01:53:38;96772.41;;;2.47;100.00
39555;BME280;25231;48.746;9.234;2022-12-07T01:56:05;96780.59;;;2.51;100.00
39555;BME280;25231;48.746;9.234;2022-12-07T01:58:33;96775.19;;;2.61;100.00
39555;BME280;25231;48.746;9.234;2022-12-07T02:00:59;96780.91;;;2.56;100.00
39555;BME280;25231;48.746;9.234;2022-12-07T02:03:36;96778.31;;;2.56;100.00
39555;BME280;25231;48.746;9.234;2022-12-07T02:06:04;96771.00;;;2.60;100.00
39555;BME280;25231;48.746;9.234;2022-12-07T02:08:31;96781.44;;;2.66;100.00
39555;BME280;25231;48.746;9.234;2022-12-07T02:10:56;96777.69;;;2.54;100.00
39555;BME280;25231;48.746;9.234;2022-12-07T02:13:25;96781.69;;;2.57;100.00
39555;BME280;25231;48.746;9.234;2022-12-07T02:21:12;96776.59;;;2.63;100.00
39555;BME280;25231;48.746;9.234;2022-12-07T02:27:02;96768.69;;;2.65;100.00
39555;BME280;25231;48.746;9.234;2022-12-07T02:32:02;96762.97;;;2.55;100.00
39555;BME280;25231;48.746;9.234;2022-12-07T02:34:35;96761.44;;;2.60;100.00
39555;BME280;25231;48.746;9.234;2022-12-07T02:37:10;96762.59;;;2.43;100.00
39555;BME280;25231;48.746;9.234;2022-12-07T02:39:44;96762.50;;;2.51;100.00
39555;BME280;25231;48.746;9.234;2022-12-07T02:42:17;96759.19;;;2.57;100.00
39555;BME280;25231;48.746;9.234;2022-12-07T02:44:46;96750.38;;;2.51;100.00
39555;BME280;25231;48.746;9.234;2022-12-07T02:47:14;96758.06;;;2.60;100.00
39555;BME280;25231;48.746;9.234;2022-12-07T02:49:42;96760.66;;;2.60;100.00
39555;BME280;25231;48.746;9.234;2022-12-07T02:52:08;96756.19;;;2.54;100.00
39555;BME280;25231;48.746;9.234;2022-12-07T02:54:33;96753.69;;;2.60;100.00
39555;BME280;25231;48.746;9.234;2022-12-07T02:57:27;96751.19;;;2.67;100.00
39555;BME280;25231;48.746;9.234;2022-12-07T03:02:53;96754.75;;;2.66;100.00
39555;BME280;25231;48.746;9.234;2022-12-07T03:05:41;96745.47;;;2.57;100.00
39555;BME280;25231;48.746;9.234;2022-12-07T03:16:27;96743.06;;;2.70;100.00
39555;BME280;25231;48.746;9.234;2022-12-07T03:19:00;96742.00;;;2.64;100.00
39555;BME280;25231;48.746;9.234;2022-12-07T03:21:33;96738.69;;;2.70;100.00
39555;BME280;25231;48.746;9.234;2022-12-07T03:24:03;96742.28;;;2.55;100.00
39555;BME280;25231;48.746;9.234;2022-12-07T03:26:34;96729.69;;;2.66;100.00
39555;BME280;25231;48.746;9.234;2022-12-07T03:29:06;96736.19;;;2.62;100.00
39555;BME280;25231;48.746;9.234;2022-12-07T03:31:37;96740.13;;;2.58;100.00
39555;BME280;25231;48.746;9.234;2022-12-07T03:34:26;96734.25;;;2.64;100.00
39555;BME280;25231;48.746;9.234;2022-12-07T03:36:55;96736.94;;;2.56;100.00
39555;BME280;25231;48.746;9.234;2022-12-07T03:39:27;96735.13;;;2.57;100.00
39555;BME280;25231;48.746;9.234;2022-12-07T03:41:54;96734.78;;;2.60;100.00
39555;BME280;25231;48.746;9.234;2022-12-07T03:44:21;96728.97;;;2.58;100.00
39555;BME280;25231;48.746;9.234;2022-12-07T03:49:30;96726.75;;;2.69;100.00
39555;BME280;25231;48.746;9.234;2022-12-07T03:52:24;96728.88;;;2.66;100.00
39555;BME280;25231;48.746;9.234;2022-12-07T03:54:58;96731.44;;;2.51;100.00
39555;BME280;25231;48.746;9.234;2022-12-07T03:57:27;96726.28;;;2.51;100.00
39555;BME280;25231;48.746;9.234;2022-12-07T03:59:55;96732.47;;;2.65;100.00
39555;BME280;25231;48.746;9.234;2022-12-07T04:02:21;96727.56;;;2.55;100.00
39555;BME280;25231;48.746;9.234;2022-12-07T04:04:47;96724.50;;;2.51;100.00
39555;BME280;25231;48.746;9.234;2022-12-07T04:07:12;96723.09;;;2.64;100.00
39555;BME280;25231;48.746;9.234;2022-12-07T04:09:38;96725.66;;;2.64;100.00
39555;BME280;25231;48.746;9.234;2022-12-07T04:12:04;96731.22;;;2.61;100.00
39555;BME280;25231;48.746;9.234;2022-12-07T04:14:29;96720.13;;;2.52;100.00
39555;BME280;25231;48.746;9.234;2022-12-07T04:16:57;96717.81;;;2.57;100.00
39555;BME280;25231;48.746;9.234;2022-12-07T04:19:25;96713.44;;;2.58;100.00
39555;BME280;25231;48.746;9.234;2022-12-07T04:21:54;96712.09;;;2.47;100.00
39555;BME280;25231;48.746;9.234;2022-12-07T04:24:20;96712.47;;;2.44;100.00
39555;BME280;25231;48.746;9.234;2022-12-07T04:26:46;96718.63;;;2.43;100.00
39555;BME280;25231;48.746;9.234;2022-12-07T04:29:12;96712.53;;;2.36;100.00
39555;BME280;25231;48.746;9.234;2022-12-07T04:31:39;96718.19;;;2.39;100.00
39555;BME280;25231;48.746;9.234;2022-12-07T04:34:05;96709.03;;;2.29;100.00
39555;BME280;25231;48.746;9.234;2022-12-07T04:36:31;96703.72;;;2.30;100.00
39555;BME280;25231;48.746;9.234;2022-12-07T04:38:57;96701.22;;;2.37;100.00
39555;BME280;25231;48.746;9.234;2022-12-07T04:41:23;96689.91;;;2.38;100.00
39555;BME280;25231;48.746;9.234;2022-12-07T04:43:55;96688.91;;;2.24;100.00
39555;BME280;25231;48.746;9.234;2022-12-07T04:46:22;96690.06;;;2.22;100.00
39555;BME280;25231;48.746;9.234;2022-12-07T04:48:48;96687.38;;;2.15;100.00
39555;BME280;25231;48.746;9.234;2022-12-07T04:51:18;96686.22;;;2.18;100.00
39555;BME280;25231;48.746;9.234;2022-12-07T04:53:44;96681.59;;;2.28;100.00
39555;BME280;25231;48.746;9.234;2022-12-07T04:56:09;96691.84;;;2.21;100.00
39555;BME280;25231;48.746;9.234;2022-12-07T04:58:34;96687.28;;;2.23;100.00
39555;BME280;25231;48.746;9.234;2022-12-07T05:01:00;96686.94;;;2.26;100.00
39555;BME280;25231;48.746;9.234;2022-12-07T05:03:25;96678.47;;;2.32;100.00
39555;BME280;25231;48.746;9.234;2022-12-07T05:05:51;96677.41;;;2.41;100.00
39555;BME280;25231;48.746;9.234;2022-12-07T05:08:16;96673.84;;;2.42;100.00
39555;BME280;25231;48.746;9.234;2022-12-07T05:10:41;96676.69;;;2.47;100.00
39555;BME280;25231;48.746;9.234;2022-12-07T05:13:07;96675.19;;;2.53;100.00
39555;BME280;25231;48.746;9.234;2022-12-07T05:15:32;96680.72;;;2.50;98.99
39555;BME280;25231;48.746;9.234;2022-12-07T05:17:58;96682.78;;;2.55;97.82
39555;BME280;25231;48.746;9.234;2022-12-07T05:20:23;96687.13;;;2.54;97.19
39555;BME280;25231;48.746;9.234;2022-12-07T05:22:49;96685.25;;;2.48;97.77
39555;BME280;25231;48.746;9.234;2022-12-07T05:25:14;96682.78;;;2.55;96.57
39555;BME280;25231;48.746;9.234;2022-12-07T05:27:39;96681.59;;;2.57;95.07
39555;BME280;25231;48.746;9.234;2022-12-07T05:30:05;96685.34;;;2.55;94.99
39555;BME280;25231;48.746;9.234;2022-12-07T05:32:31;96691.59;;;2.31;97.40
39555;BME280;25231;48.746;9.234;2022-12-07T05:34:56;96697.63;;;2.08;100.00
39555;BME280;25231;48.746;9.234;2022-12-07T05:37:22;96700.56;;;2.20;100.00
39555;BME280;25231;48.746;9.234;2022-12-07T05:39:47;96694.72;;;2.41;100.00
39555;BME280;25231;48.746;9.234;2022-12-07T05:42:12;96696.25;;;1.98;100.00
39555;BME280;25231;48.746;9.234;2022-12-07T05:44:42;96702.69;;;1.79;100.00
39555;BME280;25231;48.746;9.234;2022-12-07T05:47:09;96699.47;;;2.00;100.00
39555;BME280;25231;48.746;9.234;2022-12-07T05:49:35;96711.38;;;1.86;100.00
39555;BME280;25231;48.746;9.234;2022-12-07T05:52:00;96717.91;;;1.74;100.00
39555;BME280;25231;48.746;9.234;2022-12-07T05:54:26;96716.91;;;1.83;100.00
39555;BME280;25231;48.746;9.234;2022-12-07T05:56:51;96720.56;;;1.89;100.00
39555;BME280;25231;48.746;9.234;2022-12-07T05:59:17;96724.78;;;1.67;100.00
39555;BME280;25231;48.746;9.234;2022-12-07T06:02:00;96724.47;;;1.39;100.00
39555;BME280;25231;48.746;9.234;2022-12-07T06:04:29;96720.16;;;1.32;100.00
39555;BME280;25231;48.746;9.234;2022-12-07T06:06:55;96719.19;;;1.33;100.00
39555;BME280;25231;48.746;9.234;2022-12-07T06:09:21;96715.03;;;1.46;100.00
39555;BME280;25231;48.746;9.234;2022-12-07T06:11:47;96710.66;;;1.55;100.00
39555;BME280;25231;48.746;9.234;2022-12-07T06:14:31;96711.66;;;1.68;100.00
39555;BME280;25231;48.746;9.234;2022-12-07T06:16:58;96710.28;;;1.81;100.00
39555;BME280;25231;48.746;9.234;2022-12-07T06:19:24;96715.28;;;1.59;100.00
39555;BME280;25231;48.746;9.234;2022-12-07T06:21:49;96717.31;;;1.72;100.00
39555;BME280;25231;48.746;9.234;2022-12-07T06:24:16;96722.00;;;1.68;100.00
39555;BME280;25231;48.746;9.234;2022-12-07T06:26:42;96720.88;;;1.71;100.00
39555;BME280;25231;48.746;9.234;2022-12-07T06:29:07;96715.06;;;1.69;100.00
39555;BME280;25231;48.746;9.234;2022-12-07T06:31:33;96714.84;;;1.56;100.00
39555;BME280;25231;48.746;9.234;2022-12-07T06:34:04;96719.09;;;1.72;100.00
39555;BME280;25231;48.746;9.234;2022-12-07T06:36:30;96716.25;;;1.81;100.00
39555;BME280;25231;48.746;9.234;2022-12-07T06:38:56;96712.16;;;1.72;100.00
39555;BME280;25231;48.746;9.234;2022-12-07T06:41:22;96720.19;;;1.77;100.00
39555;BME280;25231;48.746;9.234;2022-12-07T06:43:47;96722.97;;;1.90;100.00
39555;BME280;25231;48.746;9.234;2022-12-07T06:46:14;96723.47;;;1.86;100.00
39555;BME280;25231;48.746;9.234;2022-12-07T06:48:39;96718.97;;;1.88;100.00
39555;BME280;25231;48.746;9.234;2022-12-07T06:51:05;96720.91;;;1.86;100.00
39555;BME280;25231;48.746;9.234;2022-12-07T06:53:30;96715.41;;;1.89;100.00
39555;BME280;25231;48.746;9.234;2022-12-07T06:55:56;96710.84;;;1.91;100.00
39555;BME280;25231;48.746;9.234;2022-12-07T06:58:21;96717.28;;;1.95;100.00
39555;BME280;25231;48.746;9.234;2022-12-07T07:00:48;96728.75;;;2.15;100.00
39555;BME280;25231;48.746;9.234;2022-12-07T07:03:14;96741.16;;;1.97;100.00
39555;BME280;25231;48.746;9.234;2022-12-07T07:05:41;96741.13;;;2.05;100.00
39555;BME280;25231;48.746;9.234;2022-12-07T07:08:07;96735.88;;;1.90;100.00
39555;BME280;25231;48.746;9.234;2022-12-07T07:10:33;96735.28;;;1.88;100.00
39555;BME280;25231;48.746;9.234;2022-12-07T07:12:58;96737.63;;;2.13;100.00
39555;BME280;25231;48.746;9.234;2022-12-07T07:15:24;96735.94;;;2.05;100.00
39555;BME280;25231;48.746;9.234;2022-12-07T07:17:49;96737.44;;;1.99;100.00
39555;BME280;25231;48.746;9.234;2022-12-07T07:20:14;96732.81;;;1.95;100.00
39555;BME280;25231;48.746;9.234;2022-12-07T07:22:40;96738.84;;;2.02;100.00
39555;BME280;25231;48.746;9.234;2022-12-07T07:25:06;96740.75;;;2.08;100.00
39555;BME280;25231;48.746;9.234;2022-12-07T07:27:31;96739.72;;;2.17;100.00
39555;BME280;25231;48.746;9.234;2022-12-07T07:29:57;96743.88;;;2.18;100.00
39555;BME280;25231;48.746;9.234;2022-12-07T07:32:22;96739.72;;;2.17;100.00
39555;BME280;25231;48.746;9.234;2022-12-07T07:34:48;96738.06;;;2.01;100.00
39555;BME280;25231;48.746;9.234;2022-12-07T07:37:13;96743.91;;;1.95;100.00
39555;BME280;25231;48.746;9.234;2022-12-07T07:39:39;96745.66;;;2.18;100.00
39555;BME280;25231;48.746;9.234;2022-12-07T07:42:04;96749.75;;;2.12;100.00
39555;BME280;25231;48.746;9.234;2022-12-07T07:44:30;96751.59;;;2.26;100.00
39555;BME280;25231;48.746;9.234;2022-12-07T07:46:55;96746.06;;;2.29;100.00
39555;BME280;25231;48.746;9.234;2022-12-07T07:49:21;96752.56;;;2.40;100.00
39555;BME280;25231;48.746;9.234;2022-12-07T07:51:46;96756.34;;;2.37;100.00
39555;BME280;25231;48.746;9.234;2022-12-07T07:54:12;96758.19;;;2.29;100.00
39555;BME280;25231;48.746;9.234;2022-12-07T07:56:37;96760.72;;;2.51;100.00
39555;BME280;25231;48.746;9.234;2022-12-07T07:59:02;96755.41;;;2.30;100.00
39555;BME280;25231;48.746;9.234;2022-12-07T08:01:28;96758.06;;;2.45;100.00
39555;BME280;25231;48.746;9.234;2022-12-07T08:03:53;96761.72;;;2.50;100.00
39555;BME280;25231;48.746;9.234;2022-12-07T08:06:19;96755.53;;;2.37;100.00
39555;BME280;25231;48.746;9.234;2022-12-07T08:08:44;96757.78;;;2.55;100.00
39555;BME280;25231;48.746;9.234;2022-12-07T08:11:09;96750.09;;;2.46;100.00
39555;BME280;25231;48.746;9.234;2022-12-07T08:13:36;96751.28;;;2.44;100.00
39555;BME280;25231;48.746;9.234;2022-12-07T08:16:07;96756.19;;;2.54;100.00
39555;BME280;25231;48.746;9.234;2022-12-07T08:18:39;96757.31;;;2.51;100.00
39555;BME280;25231;48.746;9.234;2022-12-07T08:21:06;96764.03;;;2.60;100.00
39555;BME280;25231;48.746;9.234;2022-12-07T08:23:32;96762.78;;;2.71;100.00
39555;BME280;25231;48.746;9.234;2022-12-07T08:26:03;96760.03;;;2.87;100.00
39555;BME280;25231;48.746;9.234;2022-12-07T08:28:29;96764.13;;;2.67;100.00
39555;BME280;25231;48.746;9.234;2022-12-07T08:31:03;96762.69;;;2.79;100.00
39555;BME280;25231;48.746;9.234;2022-12-07T08:33:29;96766.34;;;2.70;100.00
39555;BME280;25231;48.746;9.234;2022-12-07T08:36:03;96769.69;;;2.78;100.00
39555;BME280;25231;48.746;9.234;2022-12-07T08:38:29;96765.84;;;2.89;100.00
39555;BME280;25231;48.746;9.234;2022-12-07T08:40:58;96771.19;;;2.87;100.00
39555;BME280;25231;48.746;9.234;2022-12-07T08:43:24;96766.91;;;2.95;100.00
39555;BME280;25231;48.746;9.234;2022-12-07T08:48:37;96766.97;;;3.16;100.00
39555;BME280;25231;48.746;9.234;2022-12-07T08:51:04;96767.59;;;3.03;100.00
39555;BME280;25231;48.746;9.234;2022-12-07T08:53:30;96768.66;;;3.09;100.00
39555;BME280;25231;48.746;9.234;2022-12-07T08:55:57;96776.06;;;3.26;100.00
39555;BME280;25231;48.746;9.234;2022-12-07T08:58:23;96776.88;;;3.27;100.00
39555;BME280;25231;48.746;9.234;2022-12-07T09:00:48;96770.38;;;3.16;100.00
39555;BME280;25231;48.746;9.234;2022-12-07T09:03:14;96772.63;;;3.41;100.00
39555;BME280;25231;48.746;9.234;2022-12-07T09:05:39;96767.25;;;3.57;100.00
39555;BME280;25231;48.746;9.234;2022-12-07T09:08:05;96770.38;;;3.52;100.00
39555;BME280;25231;48.746;9.234;2022-12-07T09:10:31;96771.44;;;3.58;100.00
39555;BME280;25231;48.746;9.234;2022-12-07T09:12:57;96761.41;;;3.69;100.00
39555;BME280;25231;48.746;9.234;2022-12-07T09:15:29;96762.03;;;3.93;98.83
39555;BME280;25231;48.746;9.234;2022-12-07T09:17:55;96762.59;;;3.67;100.00
39555;BME280;25231;48.746;9.234;2022-12-07T09:20:21;96772.22;;;3.73;100.00
39555;BME280;25231;48.746;9.234;2022-12-07T09:22:47;96767.94;;;4.08;98.54
39555;BME280;25231;48.746;9.234;2022-12-07T09:25:12;96771.41;;;3.94;98.59
39555;BME280;25231;48.746;9.234;2022-12-07T09:27:37;96770.19;;;4.11;97.21
39555;BME280;25231;48.746;9.234;2022-12-07T09:30:04;96768.44;;;3.97;97.13
39555;BME280;25231;48.746;9.234;2022-12-07T09:32:30;96763.75;;;4.07;98.27
39555;BME280;25231;48.746;9.234;2022-12-07T09:34:56;96767.59;;;4.11;97.57
39555;BME280;25231;48.746;9.234;2022-12-07T09:37:21;96766.59;;;3.91;99.44
39555;BME280;25231;48.746;9.234;2022-12-07T09:39:47;96763.25;;;3.97;97.66
39555;BME280;25231;48.746;9.234;2022-12-07T09:42:35;96768.00;;;4.14;95.56
39555;BME280;25231;48.746;9.234;2022-12-07T09:45:04;96766.00;;;3.89;97.11
39555;BME280;25231;48.746;9.234;2022-12-07T09:47:30;96758.84;;;4.18;95.66
39555;BME280;25231;48.746;9.234;2022-12-07T09:50:03;96760.41;;;4.13;96.25
39555;BME280;25231;48.746;9.234;2022-12-07T09:52:30;96752.69;;;4.47;94.33
39555;BME280;25231;48.746;9.234;2022-12-07T09:54:55;96758.59;;;4.35;93.14
39555;BME280;25231;48.746;9.234;2022-12-07T09:57:30;96750.91;;;4.48;93.47
39555;BME280;25231;48.746;9.234;2022-12-07T10:00:00;96746.72;;;4.47;92.26
39555;BME280;25231;48.746;9.234;2022-12-07T10:05:01;96746.00;;;4.59;92.62
39555;BME280;25231;48.746;9.234;2022-12-07T10:07:29;96747.66;;;4.67;91.84
39555;BME280;25231;48.746;9.234;2022-12-07T10:09:54;96741.28;;;4.70;91.38
39555;BME280;25231;48.746;9.234;2022-12-07T10:12:20;96740.06;;;4.66;91.39
39555;BME280;25231;48.746;9.234;2022-12-07T10:14:57;96733.56;;;4.48;92.79
39555;BME280;25231;48.746;9.234;2022-12-07T10:17:34;96732.84;;;4.61;92.67
39555;BME280;25231;48.746;9.234;2022-12-07T10:20:21;96720.63;;;4.89;91.48
39555;BME280;25231;48.746;9.234;2022-12-07T10:23:05;96730.28;;;4.68;91.97
39555;BME280;25231;48.746;9.234;2022-12-07T10:25:35;96726.91;;;4.74;90.18
39555;BME280;25231;48.746;9.234;2022-12-07T10:30:46;96722.09;;;5.05;87.85
39555;BME280;25231;48.746;9.234;2022-12-07T10:36:17;96720.94;;;4.73;87.69
39555;BME280;25231;48.746;9.234;2022-12-07T10:38:48;96721.69;;;5.08;86.17
39555;BME280;25231;48.746;9.234;2022-12-07T10:41:14;96725.81;;;4.89;87.20
39555;BME280;25231;48.746;9.234;2022-12-07T10:43:47;96719.06;;;4.95;87.05
39555;BME280;25231;48.746;9.234;2022-12-07T10:46:19;96717.19;;;4.82;87.51
39555;BME280;25231;48.746;9.234;2022-12-07T10:56:51;96703.22;;;4.83;88.93
39555;BME280;25231;48.746;9.234;2022-12-07T10:59:29;96699.50;;;4.99;87.41
39555;BME280;25231;48.746;9.234;2022-12-07T11:05:18;96697.06;;;4.97;86.54
39555;BME280;25231;48.746;9.234;2022-12-07T11:16:14;96693.47;;;4.57;90.24
39555;BME280;25231;48.746;9.234;2022-12-07T11:19:12;96685.91;;;4.63;90.93
39555;BME280;25231;48.746;9.234;2022-12-07T11:22:01;96684.47;;;4.53;91.88
39555;BME280;25231;48.746;9.234;2022-12-07T11:32:49;96680.50;;;4.51;91.70
39555;BME280;25231;48.746;9.234;2022-12-07T11:37:46;96665.53;;;4.59;92.66
39555;BME280;25231;48.746;9.234;2022-12-07T11:40:15;96664.38;;;4.69;91.69
39555;BME280;25231;48.746;9.234;2022-12-07T11:42:46;96662.00;;;4.74;90.92
39555;BME280;25231;48.746;9.234;2022-12-07T11:45:22;96657.97;;;4.65;92.31
39555;BME280;25231;48.746;9.234;2022-12-07T11:50:43;96657.41;;;4.69;91.35
39555;BME280;25231;48.746;9.234;2022-12-07T11:53:37;96655.44;;;4.71;90.36
39555;BME280;25231;48.746;9.234;2022-12-07T11:56:16;96643.88;;;4.80;90.33
39555;BME280;25231;48.746;9.234;2022-12-07T11:58:49;96647.22;;;4.68;90.86
39555;BME280;25231;48.746;9.234;2022-12-07T12:01:20;96646.22;;;4.69;90.30
39555;BME280;25231;48.746;9.234;2022-12-07T12:03:52;96644.25;;;4.71;90.34
39555;BME280;25231;48.746;9.234;2022-12-07T12:06:20;96645.63;;;4.67;91.49
39555;BME280;25231;48.746;9.234;2022-12-07T12:08:57;96642.78;;;4.55;91.57
39555;BME280;25231;48.746;9.234;2022-12-07T12:16:49;96641.69;;;4.43;92.51
39555;BME280;25231;48.746;9.234;2022-12-07T12:19:42;96630.75;;;4.47;92.91
39555;BME280;25231;48.746;9.234;2022-12-07T12:22:20;96634.59;;;4.58;92.35
39555;BME280;25231;48.746;9.234;2022-12-07T12:24:52;96633.78;;;4.51;97.85
39555;BME280;25231;48.746;9.234;2022-12-07T12:27:25;96630.31;;;4.09;100.00
39555;BME280;25231;48.746;9.234;2022-12-07T12:29:59;96627.31;;;4.06;100.00
39555;BME280;25231;48.746;9.234;2022-12-07T12:32:44;96632.41;;;3.93;100.00
39555;BME280;25231;48.746;9.234;2022-12-07T12:37:52;96628.94;;;3.86;100.00
39555;BME280;25231;48.746;9.234;2022-12-07T12:42:52;96627.03;;;3.94;100.00
39555;BME280;25231;48.746;9.234;2022-12-07T12:45:21;96622.66;;;3.95;100.00
39555;BME280;25231;48.746;9.234;2022-12-07T12:47:57;96628.03;;;3.93;100.00
39555;BME280;25231;48.746;9.234;2022-12-07T12:55:54;96624.34;;;4.09;100.00
39555;BME280;25231;48.746;9.234;2022-12-07T12:58:32;96616.22;;;4.18;100.00
39555;BME280;25231;48.746;9.234;2022-12-07T13:04:00;96617.75;;;4.06;100.00
39555;BME280;25231;48.746;9.234;2022-12-07T13:06:32;96614.94;;;4.08;100.00
39555;BME280;25231;48.746;9.234;2022-12-07T13:09:01;96611.66;;;4.21;100.00
39555;BME280;25231;48.746;9.234;2022-12-07T13:11:34;96604.06;;;3.91;100.00
39555;BME280;25231;48.746;9.234;2022-12-07T13:23:10;96594.72;;;3.69;100.00
39555;BME280;25231;48.746;9.234;2022-12-07T13:25:30;96595.25;;;3.86;100.00
39555;BME280;25231;48.746;9.234;2022-12-07T13:28:17;96584.81;;;4.07;100.00
39555;BME280;25231;48.746;9.234;2022-12-07T13:33:34;96596.00;;;4.07;100.00
39555;BME280;25231;48.746;9.234;2022-12-07T13:35:59;96588.59;;;4.04;100.00
39555;BME280;25231;48.746;9.234;2022-12-07T13:38:32;96594.03;;;4.09;100.00
39555;BME280;25231;48.746;9.234;2022-12-07T13:44:19;96585.56;;;3.94;100.00
39555;BME280;25231;48.746;9.234;2022-12-07T13:47:01;96588.06;;;4.15;100.00
39555;BME280;25231;48.746;9.234;2022-12-07T13:49:32;96590.88;;;3.86;100.00
39555;BME280;25231;48.746;9.234;2022-12-07T13:54:55;96588.75;;;3.96;100.00
39555;BME280;25231;48.746;9.234;2022-12-07T13:57:22;96585.84;;;4.06;100.00
39555;BME280;25231;48.746;9.234;2022-12-07T13:59:47;96587.88;;;3.83;100.00
39555;BME280;25231;48.746;9.234;2022-12-07T14:02:29;96591.91;;;3.92;100.00
39555;BME280;25231;48.746;9.234;2022-12-07T14:05:08;96583.56;;;3.96;100.00
39555;BME280;25231;48.746;9.234;2022-12-07T14:07:34;96591.06;;;3.85;100.00
39555;BME280;25231;48.746;9.234;2022-12-07T14:10:06;96579.63;;;4.00;100.00
39555;BME280;25231;48.746;9.234;2022-12-07T14:12:32;96581.59;;;3.98;100.00
39555;BME280;25231;48.746;9.234;2022-12-07T14:15:01;96582.31;;;4.20;100.00
39555;BME280;25231;48.746;9.234;2022-12-07T14:17:27;96582.22;;;4.00;100.00
39555;BME280;25231;48.746;9.234;2022-12-07T14:20:00;96583.66;;;3.82;100.00
39555;BME280;25231;48.746;9.234;2022-12-07T14:22:27;96588.72;;;3.90;100.00
39555;BME280;25231;48.746;9.234;2022-12-07T14:25:16;96581.97;;;3.95;100.00
39555;BME280;25231;48.746;9.234;2022-12-07T14:27:50;96579.00;;;3.98;100.00
39555;BME280;25231;48.746;9.234;2022-12-07T14:30:17;96577.19;;;3.99;100.00
39555;BME280;25231;48.746;9.234;2022-12-07T14:32:43;96580.91;;;4.17;100.00
39555;BME280;25231;48.746;9.234;2022-12-07T14:35:15;96577.25;;;4.05;100.00
39555;BME280;25231;48.746;9.234;2022-12-07T14:37:43;96575.72;;;4.17;100.00
39555;BME280;25231;48.746;9.234;2022-12-07T14:40:14;96577.19;;;3.99;100.00
39555;BME280;25231;48.746;9.234;2022-12-07T14:42:39;96577.19;;;3.99;100.00
39555;BME280;25231;48.746;9.234;2022-12-07T14:45:18;96576.78;;;3.95;100.00
39555;BME280;25231;48.746;9.234;2022-12-07T14:47:44;96577.66;;;4.09;100.00
39555;BME280;25231;48.746;9.234;2022-12-07T14:50:18;96577.44;;;4.04;100.00
39555;BME280;25231;48.746;9.234;2022-12-07T14:52:47;96583.66;;;4.09;100.00
39555;BME280;25231;48.746;9.234;2022-12-07T14:55:24;96581.59;;;3.98;100.00
39555;BME280;25231;48.746;9.234;2022-12-07T14:57:50;96582.66;;;4.10;99.02